Time;durP1;ratioP1;P1;durP2;ratioP2;P2;SDS_P1;SDS_P2;PMS_P1;PMS_P2;Temp;Humidity;BMP_temperature;BMP_pressure;BME280_temperature;BME280_humidity;BME280_pressure;Samples;Min_cycle;Max_cycle;Signal;HPM_P1;HPM_P2
2022/05/31 00:02:18;;;;;;;3.13;1.80;;;10.60;99.90;;;;;;5026953;28;20207;-72
2022/05/31 00:04:46;;;;;;;2.70;2.10;;;10.80;99.90;;;;;;5026414;28;20220;-75
2022/05/31 00:07:12;;;;;;;2.67;1.90;;;10.90;99.90;;;;;;5019906;28;20230;-74
2022/05/31 00:09:39;;;;;;;2.47;1.80;;;10.80;99.90;;;;;;5019026;28;20192;-73
2022/05/31 00:12:06;;;;;;;3.50;2.33;;;10.70;99.90;;;;;;5024037;28;20671;-73
2022/05/31 00:14:33;;;;;;;3.43;2.30;;;10.70;99.90;;;;;;5021557;28;20263;-75
2022/05/31 00:17:00;;;;;;;4.97;1.80;;;10.70;99.90;;;;;;5021782;28;20209;-74
2022/05/31 00:19:27;;;;;;;4.30;2.00;;;10.70;99.90;;;;;;5020766;28;20224;-74
2022/05/31 00:22:16;;;;;;;3.27;1.93;;;10.60;99.90;;;;;;5023901;28;20206;-74
2022/05/31 00:24:43;;;;;;;2.87;1.80;;;10.60;99.90;;;;;;5023221;28;20247;-72
2022/05/31 00:27:12;;;;;;;2.03;1.70;;;10.50;99.90;;;;;;5016392;28;20221;-74
2022/05/31 00:29:38;;;;;;;2.27;1.73;;;10.50;99.90;;;;;;5020980;28;20687;-76
2022/05/31 00:32:08;;;;;;;4.10;1.97;;;10.50;99.90;;;;;;5023797;28;20677;-74
2022/05/31 00:34:40;;;;;;;2.47;1.97;;;10.50;99.90;;;;;;5021444;28;20224;-73
2022/05/31 00:37:07;;;;;;;2.90;1.80;;;10.50;99.90;;;;;;5016571;28;20208;-71
2022/05/31 00:39:34;;;;;;;2.97;1.60;;;10.40;99.90;;;;;;5020214;28;20196;-71
2022/05/31 00:42:06;;;;;;;2.57;1.73;;;10.40;99.90;;;;;;5019352;28;20199;-74
2022/05/31 00:44:34;;;;;;;2.90;1.80;;;10.50;99.90;;;;;;5020926;28;20223;-71
2022/05/31 00:47:24;;;;;;;3.57;2.10;;;10.50;99.90;;;;;;5017133;28;20220;-72
2022/05/31 00:49:56;;;;;;;2.37;1.60;;;10.50;99.90;;;;;;5023783;28;20356;-68
2022/05/31 00:52:31;;;;;;;3.47;1.90;;;10.40;99.90;;;;;;5025831;28;20200;-68
2022/05/31 00:55:01;;;;;;;2.20;1.80;;;10.40;99.90;;;;;;5019535;28;20368;-68
2022/05/31 00:57:29;;;;;;;2.47;2.00;;;10.40;99.90;;;;;;5017827;28;20246;-68
2022/05/31 01:00:04;;;;;;;3.07;1.80;;;10.40;99.90;;;;;;5023833;28;20199;-69
2022/05/31 01:02:31;;;;;;;3.10;1.90;;;10.40;99.90;;;;;;5025589;28;20709;-69
2022/05/31 01:05:00;;;;;;;3.27;2.00;;;10.40;99.90;;;;;;5018523;28;20221;-69
2022/05/31 01:07:27;;;;;;;2.73;1.60;;;10.60;99.90;;;;;;5015773;28;20227;-71
2022/05/31 01:09:54;;;;;;;2.30;1.90;;;10.80;99.90;;;;;;5015292;28;20206;-70
2022/05/31 01:12:22;;;;;;;2.47;1.60;;;10.90;99.90;;;;;;5019393;28;20209;-71
2022/05/31 01:14:49;;;;;;;5.60;1.73;;;10.90;99.90;;;;;;5019967;28;20218;-70
2022/05/31 01:17:19;;;;;;;3.90;1.97;;;10.80;99.90;;;;;;5021342;28;20199;-71
2022/05/31 01:19:56;;;;;;;3.00;1.90;;;10.80;99.90;;;;;;5013501;28;20233;-70
2022/05/31 01:22:43;;;;;;;2.23;1.80;;;10.80;99.90;;;;;;5031139;28;20212;-70
2022/05/31 01:25:22;;;;;;;3.33;1.90;;;10.70;99.90;;;;;;5014839;28;20230;-70
2022/05/31 01:27:58;;;;;;;1.77;1.50;;;10.70;99.90;;;;;;5019007;28;20192;-69
2022/05/31 01:30:26;;;;;;;1.90;1.70;;;10.70;99.90;;;;;;5017605;28;20558;-71
2022/05/31 01:33:11;;;;;;;3.60;1.70;;;10.70;99.90;;;;;;5023901;28;20198;-70
2022/05/31 01:35:38;;;;;;;2.40;1.83;;;10.70;99.90;;;;;;5017758;28;20269;-70
2022/05/31 01:38:23;;;;;;;2.43;1.60;;;10.80;99.90;;;;;;5016633;28;20202;-73
2022/05/31 01:40:57;;;;;;;3.00;1.60;;;10.80;99.90;;;;;;5019178;28;20198;-69
2022/05/31 01:43:24;;;;;;;2.20;1.70;;;10.70;99.90;;;;;;5019895;28;20207;-70
2022/05/31 01:45:57;;;;;;;2.23;1.40;;;10.70;99.90;;;;;;5012399;28;20299;-69
2022/05/31 01:48:26;;;;;;;3.30;1.70;;;10.60;99.90;;;;;;5021845;28;20199;-69
2022/05/31 01:50:53;;;;;;;2.10;1.90;;;10.60;99.90;;;;;;5017466;28;20197;-70
2022/05/31 01:53:19;;;;;;;2.40;1.80;;;10.60;99.90;;;;;;5015752;28;20698;-69
2022/05/31 01:55:48;;;;;;;2.37;1.73;;;10.60;99.90;;;;;;5020238;28;20225;-70
2022/05/31 01:58:22;;;;;;;2.13;1.90;;;10.50;99.90;;;;;;5014076;28;20198;-71
2022/05/31 02:00:50;;;;;;;2.37;1.57;;;10.50;99.90;;;;;;5021404;28;20663;-69
2022/05/31 02:03:19;;;;;;;3.77;1.97;;;10.40;99.90;;;;;;5018705;28;20737;-68
2022/05/31 02:05:49;;;;;;;2.53;1.90;;;10.40;99.90;;;;;;5020089;28;20223;-68
2022/05/31 02:08:18;;;;;;;2.13;1.87;;;10.50;99.90;;;;;;5020710;28;20199;-67
2022/05/31 02:10:47;;;;;;;3.10;1.60;;;10.50;99.90;;;;;;5025511;28;20195;-68
2022/05/31 02:13:15;;;;;;;2.90;1.80;;;10.50;99.90;;;;;;5022056;28;20205;-67
2022/05/31 02:15:42;;;;;;;2.30;2.10;;;10.50;99.90;;;;;;5018525;28;20220;-68
2022/05/31 02:18:12;;;;;;;2.50;1.90;;;10.40;99.90;;;;;;5016704;28;20651;-69
2022/05/31 02:20:39;;;;;;;2.40;1.93;;;10.30;99.90;;;;;;5023177;28;20543;-66
2022/05/31 02:23:06;;;;;;;2.53;2.07;;;10.40;99.90;;;;;;5019581;28;20227;-66
2022/05/31 02:25:33;;;;;;;3.17;1.93;;;10.40;99.90;;;;;;5015422;28;20218;-68
2022/05/31 02:28:00;;;;;;;2.00;1.80;;;10.50;99.90;;;;;;5015708;28;20191;-66
2022/05/31 02:30:26;;;;;;;3.23;2.03;;;10.40;99.90;;;;;;5023698;28;20199;-65
2022/05/31 02:32:53;;;;;;;2.70;2.10;;;10.30;99.90;;;;;;5016814;28;20188;-65
2022/05/31 02:35:20;;;;;;;2.10;1.90;;;10.30;99.90;;;;;;5018330;28;20215;-65
2022/05/31 02:37:46;;;;;;;2.87;1.87;;;10.30;99.90;;;;;;5018869;28;20382;-66
2022/05/31 02:40:13;;;;;;;3.30;2.10;;;10.50;99.90;;;;;;5015389;28;20211;-66
2022/05/31 02:42:42;;;;;;;4.60;2.00;;;10.70;99.90;;;;;;5017892;28;20197;-68
2022/05/31 02:45:10;;;;;;;2.50;2.00;;;10.80;99.90;;;;;;5021179;28;20216;-68
2022/05/31 02:47:39;;;;;;;2.47;2.00;;;10.90;99.90;;;;;;5019742;28;20682;-68
2022/05/31 02:50:07;;;;;;;4.83;2.10;;;10.90;99.90;;;;;;5025238;28;20219;-67
2022/05/31 02:52:34;;;;;;;2.80;1.90;;;10.80;99.90;;;;;;5022997;28;20200;-67
2022/05/31 02:55:01;;;;;;;3.67;2.23;;;10.80;99.90;;;;;;5020514;28;20717;-67
2022/05/31 02:57:28;;;;;;;4.57;1.83;;;10.80;99.90;;;;;;5019611;28;20210;-69
2022/05/31 02:59:55;;;;;;;2.23;1.90;;;10.70;99.90;;;;;;5023979;28;20202;-68
2022/05/31 03:02:21;;;;;;;3.40;2.00;;;10.80;99.90;;;;;;5020069;28;20200;-69
2022/05/31 03:04:48;;;;;;;2.47;1.90;;;10.80;99.90;;;;;;5021418;28;20227;-71
2022/05/31 03:07:15;;;;;;;2.20;2.00;;;10.80;99.90;;;;;;5024381;28;20217;-71
2022/05/31 03:09:41;;;;;;;2.37;2.00;;;10.90;99.90;;;;;;5021585;28;20196;-71
2022/05/31 03:12:18;;;;;;;2.03;1.80;;;10.90;99.90;;;;;;5025945;28;20212;-72
2022/05/31 03:14:59;;;;;;;2.00;1.70;;;10.90;99.90;;;;;;5037193;28;20720;-72
2022/05/31 03:17:40;;;;;;;3.40;2.00;;;11.10;99.90;;;;;;5024520;28;20196;-74
2022/05/31 03:20:24;;;;;;;2.13;1.80;;;11.30;99.90;;;;;;5020926;28;20201;-73
2022/05/31 03:23:00;;;;;;;2.30;1.80;;;11.50;99.90;;;;;;5026149;28;20205;-73
2022/05/31 03:25:28;;;;;;;3.40;1.80;;;11.40;99.90;;;;;;5027655;28;20216;-72
2022/05/31 03:27:59;;;;;;;2.73;2.03;;;11.10;99.90;;;;;;5037186;28;20494;-72
2022/05/31 03:30:26;;;;;;;2.33;1.90;;;11.10;99.90;;;;;;5024359;28;20200;-72
2022/05/31 03:32:55;;;;;;;2.47;1.90;;;11.10;99.90;;;;;;5021689;28;20196;-73
2022/05/31 03:35:21;;;;;;;2.03;1.60;;;11.10;99.90;;;;;;5020085;28;20230;-73
2022/05/31 03:37:48;;;;;;;2.70;2.10;;;11.00;99.90;;;;;;5025432;28;20590;-73
2022/05/31 03:40:56;;;;;;;3.90;2.30;;;11.00;99.90;;;;;;5022750;28;20202;-74
2022/05/31 03:43:03;;;;;;;2.73;1.97;;;11.00;99.90;;;;;;5023591;28;20689;-73
2022/05/31 03:45:38;;;;;;;2.63;1.90;;;10.90;99.90;;;;;;5018734;28;20225;-74
2022/05/31 03:48:06;;;;;;;2.17;1.70;;;10.90;99.90;;;;;;5020415;28;20227;-73
2022/05/31 03:50:34;;;;;;;3.50;2.00;;;10.90;99.90;;;;;;5018100;28;20199;-74
2022/05/31 03:53:01;;;;;;;2.97;1.97;;;11.00;99.90;;;;;;5022853;28;20196;-73
2022/05/31 03:55:28;;;;;;;2.17;1.73;;;11.00;99.90;;;;;;5021901;28;20216;-73
2022/05/31 03:57:54;;;;;;;3.23;1.90;;;11.00;99.90;;;;;;5019091;28;20222;-76
2022/05/31 04:00:22;;;;;;;2.93;2.00;;;11.00;99.90;;;;;;5018872;28;20225;-76
2022/05/31 04:02:49;;;;;;;3.10;1.90;;;11.10;99.90;;;;;;5024986;28;20206;-76
2022/05/31 04:05:15;;;;;;;2.40;1.83;;;11.20;99.90;;;;;;5024167;28;20224;-76
2022/05/31 04:07:42;;;;;;;7.10;2.40;;;11.30;99.90;;;;;;5028107;28;20217;-76
2022/05/31 04:10:10;;;;;;;2.90;2.00;;;11.30;99.90;;;;;;5021519;28;20212;-76
2022/05/31 04:12:38;;;;;;;2.27;1.80;;;11.40;99.90;;;;;;5017483;28;20355;-74
2022/05/31 04:15:05;;;;;;;2.20;1.90;;;11.50;99.90;;;;;;5021805;28;20256;-74
2022/05/31 04:17:32;;;;;;;2.00;1.80;;;11.50;99.90;;;;;;5018720;28;20204;-74
2022/05/31 04:19:59;;;;;;;2.77;2.10;;;11.50;99.90;;;;;;5021554;28;20204;-76
2022/05/31 04:22:25;;;;;;;2.30;2.00;;;11.50;99.90;;;;;;5022864;28;20215;-74
2022/05/31 04:24:54;;;;;;;3.07;2.00;;;11.50;99.90;;;;;;5018557;28;20259;-75
2022/05/31 04:27:21;;;;;;;2.83;2.20;;;11.60;99.90;;;;;;5023364;28;20225;-75
2022/05/31 04:29:48;;;;;;;3.17;1.80;;;11.60;99.90;;;;;;5023777;28;20194;-75
2022/05/31 04:32:16;;;;;;;4.00;2.17;;;11.70;99.90;;;;;;5020025;28;20589;-75
2022/05/31 04:34:43;;;;;;;3.30;1.77;;;11.70;99.90;;;;;;5015812;28;20229;-75
2022/05/31 04:37:11;;;;;;;3.13;2.13;;;11.80;99.90;;;;;;5016399;28;20211;-74
2022/05/31 04:39:38;;;;;;;3.00;2.30;;;12.00;99.90;;;;;;5009622;28;20200;-75
2022/05/31 04:42:07;;;;;;;5.40;2.43;;;11.90;99.90;;;;;;5016270;28;20195;-74
2022/05/31 04:44:33;;;;;;;3.37;2.50;;;11.90;99.90;;;;;;5015468;28;20618;-74
2022/05/31 04:47:02;;;;;;;4.70;2.50;;;12.10;99.90;;;;;;5013506;28;20233;-72
2022/05/31 04:49:29;;;;;;;5.97;2.47;;;12.30;99.90;;;;;;5019599;28;20195;-69
2022/05/31 04:51:56;;;;;;;2.93;2.30;;;12.50;99.90;;;;;;5024518;28;20209;-68
2022/05/31 04:54:24;;;;;;;3.57;2.33;;;12.60;99.90;;;;;;5017262;28;20567;-68
2022/05/31 04:56:54;;;;;;;2.80;2.10;;;12.70;99.90;;;;;;5035554;28;20839;-68
2022/05/31 04:59:21;;;;;;;3.87;2.07;;;12.50;99.90;;;;;;5020975;28;20208;-67
2022/05/31 05:01:48;;;;;;;4.87;2.37;;;12.50;99.90;;;;;;5018599;28;20206;-69
2022/05/31 05:04:14;;;;;;;3.13;1.80;;;12.50;99.90;;;;;;5018288;28;20229;-68
2022/05/31 05:06:41;;;;;;;4.03;2.10;;;12.60;99.90;;;;;;5023910;28;20217;-68
2022/05/31 05:09:08;;;;;;;3.03;1.73;;;12.70;99.90;;;;;;5018887;28;20230;-67
2022/05/31 05:11:35;;;;;;;4.07;2.03;;;12.70;99.90;;;;;;5016871;28;20216;-67
2022/05/31 05:14:02;;;;;;;3.80;1.80;;;12.70;99.90;;;;;;5014584;28;20569;-67
2022/05/31 05:16:28;;;;;;;3.77;1.87;;;12.80;99.90;;;;;;5027544;28;20192;-67
2022/05/31 05:18:56;;;;;;;4.43;2.03;;;12.80;99.90;;;;;;5025018;28;20202;-67
2022/05/31 05:21:23;;;;;;;3.63;1.80;;;12.80;99.90;;;;;;5027754;28;20218;-67
2022/05/31 05:23:49;;;;;;;3.17;1.70;;;12.80;99.90;;;;;;5019774;28;20210;-67
2022/05/31 05:26:16;;;;;;;2.27;1.93;;;12.90;99.90;;;;;;5018789;28;20192;-67
2022/05/31 05:31:32;;;;;;;1.90;1.50;;;13.40;99.90;;;;;;5019761;28;20701;-66
2022/05/31 05:34:00;;;;;;;2.93;1.70;;;13.50;99.90;;;;;;5017787;28;20627;-66
2022/05/31 05:36:28;;;;;;;2.37;1.60;;;13.50;99.90;;;;;;5023682;28;20460;-66
2022/05/31 05:38:55;;;;;;;2.93;1.60;;;13.70;99.90;;;;;;5016172;28;20208;-66
2022/05/31 05:41:24;;;;;;;2.17;1.50;;;13.80;99.90;;;;;;5021787;28;20198;-66
2022/05/31 05:43:50;;;;;;;5.97;1.70;;;14.00;99.90;;;;;;5003747;28;20245;-66
2022/05/31 05:46:25;;;;;;;1.60;1.37;;;14.20;99.90;;;;;;5019631;28;20201;-65
2022/05/31 05:48:53;;;;;;;1.90;1.50;;;14.50;99.90;;;;;;5012911;28;20734;-66
2022/05/31 05:51:23;;;;;;;1.73;1.40;;;14.90;99.90;;;;;;5021752;28;20573;-66
2022/05/31 05:53:51;;;;;;;2.07;1.53;;;15.10;99.90;;;;;;5014818;28;20203;-65
2022/05/31 05:56:18;;;;;;;2.70;1.67;;;15.30;99.90;;;;;;5017749;28;20659;-66
2022/05/31 05:58:45;;;;;;;1.83;1.60;;;15.60;99.90;;;;;;5011349;28;20627;-65
2022/05/31 06:01:26;;;;;;;2.07;1.47;;;15.80;99.90;;;;;;5013712;28;20437;-65
2022/05/31 06:04:22;;;;;;;2.83;1.47;;;16.10;99.90;;;;;;5014077;28;20639;-74
2022/05/31 06:06:58;;;;;;;2.93;1.50;;;16.40;99.90;;;;;;5012526;28;20257;-66
2022/05/31 06:09:25;;;;;;;2.10;1.50;;;16.40;99.90;;;;;;5012325;28;20195;-66
2022/05/31 06:11:58;;;;;;;2.33;1.50;;;16.40;99.90;;;;;;5018298;28;20227;-66
2022/05/31 06:14:36;;;;;;;5.53;1.40;;;16.50;99.90;;;;;;5012251;28;20239;-66
2022/05/31 06:17:09;;;;;;;1.97;1.53;;;16.40;99.90;;;;;;5015412;28;20202;-68
2022/05/31 06:19:44;;;;;;;1.73;1.47;;;16.70;99.90;;;;;;5018886;28;20706;-66
2022/05/31 06:22:11;;;;;;;3.00;1.40;;;17.10;99.90;;;;;;5017544;28;20227;-66
2022/05/31 06:24:39;;;;;;;2.90;1.67;;;17.30;99.90;;;;;;5018697;28;20250;-66
2022/05/31 06:27:06;;;;;;;2.03;1.50;;;17.50;99.90;;;;;;5024150;28;20271;-66
2022/05/31 06:29:33;;;;;;;3.67;1.50;;;17.60;99.90;;;;;;5020629;28;20200;-66
2022/05/31 06:32:00;;;;;;;1.40;1.20;;;17.70;99.90;;;;;;5022637;28;20697;-66
2022/05/31 06:34:27;;;;;;;4.07;1.70;;;17.70;99.90;;;;;;5028321;28;20256;-66
2022/05/31 06:37:09;;;;;;;2.70;1.30;;;17.90;99.90;;;;;;5026804;28;20199;-66
2022/05/31 06:39:37;;;;;;;3.17;1.67;;;18.20;99.90;;;;;;5022558;28;20193;-66
2022/05/31 06:42:04;;;;;;;2.37;1.60;;;18.10;99.90;;;;;;5024887;28;20217;-66
2022/05/31 06:44:36;;;;;;;3.20;1.70;;;18.10;99.90;;;;;;5022678;28;20215;-66
2022/05/31 06:47:03;;;;;;;5.40;1.70;;;18.50;99.90;;;;;;5019662;28;20227;-66
2022/05/31 06:49:31;;;;;;;5.27;1.80;;;18.70;99.90;;;;;;5020731;28;20222;-65
2022/05/31 06:57:31;;;;;;;6.60;1.63;;;19.00;99.90;;;;;;5019898;28;20207;-66
2022/05/31 06:59:58;;;;;;;3.10;1.60;;;18.80;99.90;;;;;;5017152;28;20666;-66
2022/05/31 07:02:27;;;;;;;3.60;1.43;;;19.10;99.90;;;;;;5018348;28;20203;-66
2022/05/31 07:04:54;;;;;;;4.67;1.43;;;20.10;99.90;;;;;;5021359;28;20219;-66
2022/05/31 07:07:21;;;;;;;1.93;1.30;;;20.70;99.90;;;;;;5027275;28;20867;-68
2022/05/31 07:09:47;;;;;;;5.50;1.30;;;20.90;99.90;;;;;;5022923;28;20204;-66
2022/05/31 07:12:14;;;;;;;2.40;1.40;;;20.60;99.90;;;;;;5027647;28;20208;-66
2022/05/31 07:14:41;;;;;;;1.67;1.50;;;20.60;99.90;;;;;;5022510;28;20223;-66
2022/05/31 07:17:08;;;;;;;3.58;2.60;;;20.40;99.90;;;;;;5022718;28;20195;-66
2022/05/31 07:19:35;;;;;;;2.50;1.50;;;20.10;99.90;;;;;;5026421;28;20200;-66
2022/05/31 07:22:22;;;;;;;5.60;1.87;;;19.80;99.90;;;;;;5021505;28;20199;-66
2022/05/31 07:24:49;;;;;;;3.67;1.30;;;20.20;99.90;;;;;;5020950;28;20212;-65
2022/05/31 07:27:16;;;;;;;1.83;1.40;;;20.80;99.90;;;;;;5027995;28;20701;-66
2022/05/31 07:29:43;;;;;;;4.13;1.35;;;21.10;99.90;;;;;;5026980;28;20261;-66
2022/05/31 07:32:10;;;;;;;2.63;1.50;;;21.60;99.90;;;;;;5029230;28;20195;-65
2022/05/31 07:34:56;;;;;;;1.95;1.50;;;22.20;99.90;;;;;;5028730;28;20690;-66
2022/05/31 07:37:25;;;;;;;4.40;1.40;;;22.20;99.90;;;;;;5025866;28;20210;-65
2022/05/31 07:39:52;;;;;;;2.95;1.40;;;21.90;99.90;;;;;;5025533;28;20206;-66
2022/05/31 07:42:19;;;;;;;3.67;1.50;;;21.70;99.90;;;;;;5029722;28;20666;-65
2022/05/31 07:44:46;;;;;;;3.03;1.48;;;21.20;99.90;;;;;;5028853;28;20226;-65
2022/05/31 07:47:12;;;;;;;3.45;1.65;;;21.00;99.90;;;;;;5031160;28;20206;-65
2022/05/31 07:49:39;;;;;;;3.33;1.60;;;21.00;99.90;;;;;;5026416;28;20199;-65
2022/05/31 07:52:10;;;;;;;5.13;1.70;;;21.20;99.90;;;;;;5028160;28;20709;-65
2022/05/31 07:54:37;;;;;;;6.28;1.65;;;21.20;99.90;;;;;;5029360;28;20226;-66
2022/05/31 07:57:05;;;;;;;2.63;2.17;;;21.10;99.90;;;;;;5028199;28;20218;-65
2022/05/31 07:59:33;;;;;;;1.58;1.45;;;20.90;99.90;;;;;;5024260;28;20192;-65
2022/05/31 08:02:01;;;;;;;2.25;1.60;;;20.90;99.90;;;;;;5027796;28;20218;-66
2022/05/31 08:04:28;;;;;;;1.90;1.65;;;21.00;99.90;;;;;;5030579;28;20221;-66
2022/05/31 08:06:59;;;;;;;3.28;1.73;;;21.00;99.90;;;;;;5027469;28;20215;-65
2022/05/31 08:09:27;;;;;;;2.20;1.75;;;20.90;99.90;;;;;;5022058;28;20290;-65
2022/05/31 08:11:54;;;;;;;2.03;1.63;;;20.80;99.90;;;;;;5028101;28;20231;-65
2022/05/31 08:14:23;;;;;;;4.40;2.03;;;20.90;99.90;;;;;;5032485;28;20277;-66
2022/05/31 08:16:52;;;;;;;4.28;1.90;;;20.80;99.90;;;;;;5022138;28;20279;-66
2022/05/31 08:19:19;;;;;;;5.32;1.80;;;20.50;99.90;;;;;;5029107;28;20663;-65
2022/05/31 08:21:46;;;;;;;3.37;1.70;;;20.20;99.90;;;;;;5014648;28;20652;-65
2022/05/31 08:24:13;;;;;;;2.35;1.80;;;20.30;99.90;;;;;;5014918;28;20220;-66
2022/05/31 08:27:00;;;;;;;2.63;1.80;;;20.30;99.90;;;;;;5025391;28;20191;-65
2022/05/31 08:29:28;;;;;;;3.83;1.73;;;20.30;99.90;;;;;;5015683;28;20220;-65
2022/05/31 08:31:58;;;;;;;7.00;2.22;;;20.20;99.90;;;;;;5021568;28;20553;-65
2022/05/31 08:34:29;;;;;;;5.35;1.70;;;20.00;99.90;;;;;;5012708;28;20227;-66
2022/05/31 08:36:56;;;;;;;3.90;1.77;;;20.10;99.90;;;;;;5015117;28;20210;-65
2022/05/31 08:39:23;;;;;;;3.63;2.00;;;20.00;99.90;;;;;;5028675;28;20206;-65
2022/05/31 08:41:56;;;;;;;5.17;1.70;;;19.90;99.90;;;;;;5024684;28;20195;-65
2022/05/31 08:44:52;;;;;;;4.40;1.93;;;19.80;99.90;;;;;;5028659;28;20721;-65
2022/05/31 08:47:31;;;;;;;2.20;1.80;;;19.20;99.90;;;;;;5021712;28;20643;-66
2022/05/31 08:53:28;;;;;;;5.77;2.47;;;19.40;99.90;;;;;;5027815;28;20712;-65
2022/05/31 08:59:13;;;;;;;5.20;1.90;;;20.50;99.90;;;;;;5024038;28;20199;-65
2022/05/31 09:01:49;;;;;;;3.17;1.95;;;20.70;99.90;;;;;;5026268;28;20206;-65
2022/05/31 09:04:25;;;;;;;4.80;1.92;;;21.10;99.90;;;;;;5030258;28;20239;-65
2022/05/31 09:07:24;;;;;;;4.32;2.03;;;21.40;99.90;;;;;;5029846;28;20570;-65
2022/05/31 09:10:19;;;;;;;2.95;1.75;;;21.10;99.90;;;;;;5027057;28;20577;-65
2022/05/31 09:12:56;;;;;;;2.45;1.67;;;21.00;99.90;;;;;;5028683;28;20199;-66
2022/05/31 09:15:36;;;;;;;4.68;2.00;;;21.20;99.90;;;;;;5021608;28;20220;-65
2022/05/31 09:18:23;;;;;;;6.30;2.10;;;21.70;99.90;;;;;;5015885;28;20191;-65
2022/05/31 09:21:00;;;;;;;4.63;1.92;;;22.00;99.90;;;;;;5018784;28;20575;-66
2022/05/31 09:23:31;;;;;;;3.03;1.85;;;22.00;99.90;;;;;;5019732;28;20563;-66
2022/05/31 09:26:19;;;;;;;2.92;2.20;;;22.30;99.90;;;;;;5014489;28;20215;-66
2022/05/31 09:28:56;;;;;;;3.03;2.00;;;22.50;99.90;;;;;;5020702;28;20558;-65
2022/05/31 09:31:51;;;;;;;2.92;1.90;;;22.80;99.90;;;;;;5013738;28;20196;-66
2022/05/31 09:34:55;;;;;;;3.20;2.00;;;23.10;99.90;;;;;;5015706;28;20267;-65
2022/05/31 09:37:25;;;;;;;4.63;2.08;;;23.30;99.90;;;;;;5015524;28;20203;-65
2022/05/31 09:40:22;;;;;;;4.80;2.20;;;23.00;99.90;;;;;;5018453;28;20199;-65
2022/05/31 09:43:20;;;;;;;3.30;1.92;;;22.90;99.90;;;;;;5021542;28;20570;-66
2022/05/31 09:46:09;;;;;;;4.75;2.30;;;23.10;99.90;;;;;;5021196;28;20208;-65
2022/05/31 09:48:48;;;;;;;6.72;2.58;;;22.80;99.90;;;;;;5019250;28;20227;-66
2022/05/31 09:51:38;;;;;;;4.60;2.20;;;22.90;99.90;;;;;;5024861;28;20558;-65
2022/05/31 09:57:06;;;;;;;4.05;2.00;;;22.50;99.90;;;;;;5026250;28;20203;-66
2022/05/31 09:59:40;;;;;;;3.00;1.80;;;22.30;99.90;;;;;;5027779;28;20287;-66
2022/05/31 10:02:30;;;;;;;4.35;2.10;;;22.50;99.90;;;;;;5026348;28;20202;-66
2022/05/31 10:05:14;;;;;;;4.85;2.13;;;22.50;99.90;;;;;;5027902;28;20215;-66
2022/05/31 10:07:41;;;;;;;3.83;2.25;;;22.80;99.90;;;;;;5028210;28;20202;-66
2022/05/31 10:10:12;;;;;;;2.65;1.90;;;23.10;99.90;;;;;;5020897;28;20962;-66
2022/05/31 10:12:50;;;;;;;2.85;1.90;;;23.10;99.90;;;;;;5029396;28;20218;-65
2022/05/31 10:15:37;;;;;;;4.88;2.15;;;23.20;99.90;;;;;;5027768;28;20211;-66
2022/05/31 10:18:08;;;;;;;4.30;1.85;;;23.10;99.90;;;;;;5019653;28;20226;-66
2022/05/31 10:20:35;;;;;;;2.83;1.92;;;23.10;99.90;;;;;;5021518;28;20207;-66
2022/05/31 10:23:13;;;;;;;4.32;1.80;;;22.90;99.90;;;;;;5021554;28;20195;-66
2022/05/31 10:25:44;;;;;;;2.95;1.90;;;23.00;99.90;;;;;;5019598;28;20220;-66
2022/05/31 10:28:40;;;;;;;2.80;1.85;;;22.90;99.90;;;;;;5022227;28;20251;-67
2022/05/31 10:31:41;;;;;;;2.38;2.05;;;23.40;99.90;;;;;;5022452;28;20196;-68
2022/05/31 10:34:40;;;;;;;5.47;2.00;;;23.90;99.90;;;;;;5019749;28;20211;-67
2022/05/31 10:37:26;;;;;;;5.35;2.38;;;24.30;99.90;;;;;;5019459;28;20200;-68
2022/05/31 10:40:02;;;;;;;4.45;2.20;;;24.60;99.90;;;;;;5019289;28;20204;-67
2022/05/31 10:42:29;;;;;;;4.10;2.65;;;24.40;99.90;;;;;;5024851;28;20223;-67
2022/05/31 10:45:02;;;;;;;3.50;2.15;;;24.20;99.90;;;;;;5026406;28;20608;-68
2022/05/31 10:47:28;;;;;;;3.65;1.98;;;23.70;99.90;;;;;;5024981;28;20674;-66
2022/05/31 10:49:55;;;;;;;4.00;2.00;;;23.60;99.90;;;;;;5026741;28;20215;-66
2022/05/31 10:52:41;;;;;;;4.53;1.90;;;23.70;99.90;;;;;;5025517;28;20230;-66
2022/05/31 10:55:39;;;;;;;4.53;1.98;;;24.00;99.90;;;;;;5022218;28;20211;-66
2022/05/31 10:58:16;;;;;;;3.75;1.52;;;24.60;99.90;;;;;;5024112;28;20575;-66
2022/05/31 11:01:21;;;;;;;2.53;1.80;;;25.10;99.90;;;;;;5024262;28;20673;-66
2022/05/31 11:04:07;;;;;;;5.07;2.00;;;25.50;99.90;;;;;;5020106;28;20215;-65
2022/05/31 11:07:05;;;;;;;3.88;1.75;;;25.70;99.80;;;;;;5022379;28;20195;-65
2022/05/31 11:12:58;;;;;;;5.22;1.90;;;26.30;98.20;;;;;;5025329;28;20195;-66
2022/05/31 11:15:34;;;;;;;7.53;2.65;;;26.20;99.40;;;;;;5027083;28;20750;-66
2022/05/31 11:18:28;;;;;;;2.83;1.60;;;26.50;97.60;;;;;;5025576;28;20188;-66
2022/05/31 11:21:14;;;;;;;5.32;2.70;;;26.70;96.90;;;;;;5026512;28;20206;-66
2022/05/31 11:23:52;;;;;;;4.40;2.03;;;25.80;97.10;;;;;;5026461;28;20253;-66
2022/05/31 11:26:37;;;;;;;3.92;1.77;;;25.80;97.90;;;;;;5020709;28;20198;-67
2022/05/31 11:29:42;;;;;;;2.83;2.03;;;25.80;98.00;;;;;;5025133;28;20233;-66
2022/05/31 11:32:32;;;;;;;3.05;1.80;;;25.70;98.10;;;;;;5026631;28;20214;-66
2022/05/31 11:35:24;;;;;;;3.88;2.38;;;25.70;97.20;;;;;;5024325;28;20648;-66
2022/05/31 11:38:14;;;;;;;3.53;2.22;;;25.50;97.80;;;;;;5023410;28;20200;-66
2022/05/31 11:41:01;;;;;;;3.63;2.00;;;25.50;97.90;;;;;;5029741;28;20187;-66
2022/05/31 11:43:42;;;;;;;2.78;1.90;;;25.70;97.40;;;;;;5024085;28;20199;-66
2022/05/31 11:46:50;;;;;;;3.50;1.80;;;25.90;98.20;;;;;;5023186;28;20619;-66
2022/05/31 11:49:58;;;;;;;3.85;2.10;;;26.00;97.60;;;;;;5000615;28;20235;-66
2022/05/31 11:52:50;;;;;;;1.70;1.60;;;26.30;96.20;;;;;;5024753;28;20223;-66
2022/05/31 11:55:30;;;;;;;3.70;1.70;;;26.60;96.60;;;;;;5027455;28;20403;-66
2022/05/31 11:58:33;;;;;;;3.88;1.92;;;27.10;96.00;;;;;;5024299;28;20191;-66
2022/05/31 12:01:06;;;;;;;2.50;1.70;;;27.20;95.80;;;;;;5027176;28;20192;-66
2022/05/31 12:03:55;;;;;;;3.70;1.70;;;27.10;95.50;;;;;;5026632;28;20211;-66
2022/05/31 12:06:43;;;;;;;3.30;1.60;;;27.40;95.50;;;;;;5028245;28;20187;-66
2022/05/31 12:09:24;;;;;;;2.08;1.58;;;27.70;94.60;;;;;;5023940;28;20314;-66
2022/05/31 12:12:30;;;;;;;2.95;1.45;;;27.00;94.30;;;;;;5025954;28;20211;-66
2022/05/31 12:15:20;;;;;;;4.97;1.40;;;26.60;94.50;;;;;;5022703;28;20226;-66
2022/05/31 12:17:56;;;;;;;2.08;1.65;;;26.30;94.20;;;;;;5024713;28;20543;-66
2022/05/31 12:20:30;;;;;;;2.25;1.50;;;26.20;93.80;;;;;;5023610;28;20265;-66
2022/05/31 12:23:05;;;;;;;5.47;1.50;;;25.80;93.40;;;;;;5025549;28;20620;-66
2022/05/31 12:25:37;;;;;;;3.58;1.50;;;25.20;94.50;;;;;;5035102;28;20222;-66
2022/05/31 12:28:19;;;;;;;3.28;1.42;;;25.30;94.10;;;;;;5026405;28;20234;-66
2022/05/31 12:31:09;;;;;;;1.83;1.20;;;25.30;94.40;;;;;;5027038;28;20219;-67
2022/05/31 12:33:47;;;;;;;2.65;1.30;;;25.30;93.00;;;;;;5018574;28;20196;-66
2022/05/31 12:36:24;;;;;;;2.95;1.25;;;24.70;93.70;;;;;;5028559;28;20199;-66
2022/05/31 12:39:20;;;;;;;1.77;1.40;;;24.40;92.50;;;;;;5027789;28;20206;-65
2022/05/31 12:41:50;;;;;;;1.50;1.15;;;24.40;92.10;;;;;;5023096;28;20207;-65
2022/05/31 12:44:32;;;;;;;1.67;1.20;;;24.20;92.60;;;;;;5027977;28;20743;-65
2022/05/31 12:47:21;;;;;;;2.00;1.20;;;24.20;92.10;;;;;;5032540;28;20202;-65
2022/05/31 12:50:06;;;;;;;1.75;1.33;;;24.30;92.10;;;;;;5025687;28;20299;-64
2022/05/31 12:55:24;;;;;;;1.38;1.10;;;24.40;91.60;;;;;;5026585;28;20218;-66
2022/05/31 13:00:55;;;;;;;1.38;1.27;;;24.10;92.30;;;;;;5028918;28;20195;-66
2022/05/31 13:03:34;;;;;;;1.33;1.15;;;23.90;92.00;;;;;;5027751;28;20191;-65
2022/05/31 13:06:10;;;;;;;2.63;1.20;;;23.80;91.10;;;;;;5025045;28;20728;-66
2022/05/31 13:08:52;;;;;;;2.25;1.10;;;24.10;91.70;;;;;;5023400;28;20576;-65
2022/05/31 13:20:21;;;;;;;3.33;1.30;;;24.80;91.40;;;;;;5026481;28;20324;-66
2022/05/31 13:22:54;;;;;;;1.30;1.00;;;25.40;91.40;;;;;;5020553;28;20299;-65
2022/05/31 13:25:38;;;;;;;2.58;1.30;;;25.40;91.40;;;;;;5024085;28;20592;-65
2022/05/31 13:28:20;;;;;;;2.72;1.52;;;25.10;91.30;;;;;;5026566;28;20560;-65
2022/05/31 13:30:47;;;;;;;1.73;1.23;;;25.10;91.60;;;;;;5024177;28;20728;-66
2022/05/31 13:33:19;;;;;;;1.48;1.30;;;25.00;91.30;;;;;;5019784;28;20204;-65
2022/05/31 13:35:55;;;;;;;2.13;1.50;;;24.40;92.10;;;;;;5021371;28;20774;-66
2022/05/31 13:38:26;;;;;;;3.47;1.50;;;24.30;91.70;;;;;;5030400;28;20218;-66
2022/05/31 13:40:55;;;;;;;1.85;1.55;;;24.10;92.00;;;;;;5024019;28;20654;-66
2022/05/31 13:43:28;;;;;;;1.90;1.50;;;23.70;92.90;;;;;;5027641;28;20662;-66
2022/05/31 13:46:03;;;;;;;2.42;1.30;;;23.40;93.10;;;;;;5040814;28;20223;-65
2022/05/31 13:48:38;;;;;;;3.13;1.40;;;23.40;93.40;;;;;;5024814;28;20199;-65
2022/05/31 13:51:10;;;;;;;3.00;1.63;;;23.30;93.20;;;;;;5026076;28;20191;-64
2022/05/31 13:53:42;;;;;;;1.58;1.25;;;23.30;93.70;;;;;;5020943;28;20195;-66
2022/05/31 13:56:16;;;;;;;2.38;1.27;;;23.00;94.20;;;;;;5021360;28;20231;-66
2022/05/31 13:58:44;;;;;;;2.72;1.27;;;23.10;93.90;;;;;;5023963;28;20202;-66